Time;durP1;ratioP1;P1;durP2;ratioP2;P2;SDS_P1;SDS_P2;PMS_P1;PMS_P2;Temp;Humidity;BMP_temperature;BMP_pressure;BME280_temperature;BME280_humidity;BME280_pressure;Samples;Min_cycle;Max_cycle;Signal;HPM_P1;HPM_P2
2024/01/12 00:00:08;;;;;;;23.33;14.77;;;;;;;-4.54;72.76;96641.34;5020383;28;20190;-78
2024/01/12 00:02:33;;;;;;;24.87;13.53;;;;;;;-4.58;72.94;96639.75;5026827;28;20210;-77
2024/01/12 00:04:59;;;;;;;23.20;13.70;;;;;;;-4.59;72.22;96635.53;5003215;28;20262;-77
2024/01/12 00:07:24;;;;;;;20.97;13.73;;;;;;;-4.57;72.78;96641.41;5022593;28;20183;-79
2024/01/12 00:09:49;;;;;;;25.27;14.87;;;;;;;-4.65;72.34;96641.56;5004126;28;20218;-78
2024/01/12 00:12:15;;;;;;;27.77;14.80;;;;;;;-4.65;72.63;96638.19;5020461;28;20691;-78
2024/01/12 00:14:40;;;;;;;24.47;13.40;;;;;;;-4.65;72.22;96640.72;5009341;28;20222;-77
2024/01/12 00:17:05;;;;;;;22.90;13.30;;;;;;;-4.62;72.56;96643.19;5020962;28;20261;-77
2024/01/12 00:19:31;;;;;;;23.23;13.63;;;;;;;-4.63;72.89;96644.06;5003056;28;20345;-78
2024/01/12 00:21:56;;;;;;;21.40;13.27;;;;;;;-4.64;72.53;96650.81;5005282;28;20602;-77
2024/01/12 00:24:21;;;;;;;23.53;13.53;;;;;;;-4.66;72.98;96651.72;5022028;28;20183;-77
2024/01/12 00:26:47;;;;;;;22.43;12.93;;;;;;;-4.64;72.50;96660.13;5022949;28;20198;-79
2024/01/12 00:29:12;;;;;;;22.63;13.43;;;;;;;-4.70;72.79;96652.63;5022438;28;20261;-78
2024/01/12 00:31:38;;;;;;;24.70;14.50;;;;;;;-4.67;73.30;96661.03;5021370;28;20194;-78
2024/01/12 00:34:03;;;;;;;22.20;13.17;;;;;;;-4.70;72.49;96656.00;5016364;28;20662;-77
2024/01/12 00:36:28;;;;;;;27.47;14.47;;;;;;;-4.74;72.68;96662.00;5001682;28;20191;-77
2024/01/12 00:38:54;;;;;;;23.47;13.77;;;;;;;-4.77;73.16;96658.66;5010171;28;20704;-78
2024/01/12 00:41:19;;;;;;;25.87;14.47;;;;;;;-4.80;73.44;96659.56;5022964;28;20534;-79
2024/01/12 00:43:44;;;;;;;24.73;14.10;;;;;;;-4.82;72.78;96660.47;5021821;28;20256;-78
2024/01/12 00:46:10;;;;;;;28.27;15.13;;;;;;;-4.85;73.39;96657.13;5004347;28;20191;-78
2024/01/12 00:48:35;;;;;;;27.00;15.43;;;;;;;-4.82;73.00;96658.78;5005542;28;20230;-78
2024/01/12 00:51:00;;;;;;;26.53;15.10;;;;;;;-4.83;73.37;96666.41;5020745;28;20186;-77
2024/01/12 00:53:25;;;;;;;26.70;15.30;;;;;;;-4.80;73.71;96666.34;5003905;28;20241;-78
2024/01/12 00:55:51;;;;;;;32.10;16.87;;;;;;;-4.79;73.05;96668.84;5024984;28;20190;-78
2024/01/12 00:58:16;;;;;;;27.73;15.00;;;;;;;-4.79;73.31;96662.94;5023195;28;20207;-79
2024/01/12 01:00:42;;;;;;;32.37;17.77;;;;;;;-4.81;73.54;96664.69;5021965;28;20190;-79
2024/01/12 01:03:07;;;;;;;34.53;17.93;;;;;;;-4.73;74.12;96662.84;5024049;28;20211;-78
2024/01/12 01:05:33;;;;;;;34.87;19.90;;;;;;;-4.69;73.88;96664.44;5027416;28;20198;-79
2024/01/12 01:07:58;;;;;;;32.87;19.60;;;;;;;-4.64;73.53;96663.50;5020326;28;20711;-78
2024/01/12 01:10:24;;;;;;;37.10;20.37;;;;;;;-4.61;73.67;96653.28;5005855;28;20214;-78
2024/01/12 01:12:49;;;;;;;39.83;20.83;;;;;;;-4.58;73.69;96649.88;5024048;28;20179;-78
2024/01/12 01:15:14;;;;;;;35.77;19.63;;;;;;;-4.58;73.12;96653.25;5025156;28;20186;-79
2024/01/12 01:17:41;;;;;;;36.53;19.60;;;;;;;-4.58;73.29;96662.56;5023029;28;20190;-78
2024/01/12 01:20:07;;;;;;;37.80;19.90;;;;;;;-4.57;73.23;96657.47;5022225;28;20203;-78
2024/01/12 01:22:34;;;;;;;33.77;18.90;;;;;;;-4.56;73.17;96663.34;5022328;28;20207;-78
2024/01/12 01:25:00;;;;;;;37.67;19.63;;;;;;;-4.57;73.25;96661.69;5003831;28;20221;-78
2024/01/12 01:27:25;;;;;;;34.97;19.60;;;;;;;-4.59;73.11;96661.72;5005580;28;20233;-78
2024/01/12 01:29:51;;;;;;;38.73;19.87;;;;;;;-4.64;72.88;96660.97;5009667;28;20207;-78
2024/01/12 01:32:16;;;;;;;37.07;19.17;;;;;;;-4.70;73.50;96661.06;5004586;28;20202;-79
2024/01/12 01:34:41;;;;;;;37.43;19.77;;;;;;;-4.68;73.11;96663.56;5024993;28;20190;-79
2024/01/12 01:37:07;;;;;;;39.77;20.07;;;;;;;-4.76;73.62;96671.34;5020798;28;20183;-79
2024/01/12 01:39:32;;;;;;;37.87;20.90;;;;;;;-4.79;73.21;96668.00;5010422;28;20269;-78
2024/01/12 01:41:58;;;;;;;36.90;18.33;;;;;;;-4.77;73.40;96669.69;5005472;28;20202;-78
2024/01/12 01:44:25;;;;;;;36.10;19.63;;;;;;;-4.78;73.64;96665.44;5005912;28;20600;-78
2024/01/12 01:46:51;;;;;;;35.07;19.97;;;;;;;-4.78;73.89;96669.69;5005641;28;20684;-79
2024/01/12 01:49:17;;;;;;;37.37;19.53;;;;;;;-4.82;73.71;96660.47;5024613;28;20203;-78
2024/01/12 01:51:42;;;;;;;32.90;18.17;;;;;;;-4.89;73.42;96673.25;5005493;28;20194;-78
2024/01/12 01:54:08;;;;;;;38.93;20.60;;;;;;;-4.86;73.99;96675.75;5006014;28;20197;-79
2024/01/12 01:56:35;;;;;;;31.20;18.07;;;;;;;-4.89;74.27;96677.47;5006891;28;20222;-78
2024/01/12 01:59:01;;;;;;;34.93;18.37;;;;;;;-4.90;73.80;96671.56;5005688;28;20203;-78
2024/01/12 02:01:26;;;;;;;30.40;17.10;;;;;;;-4.90;74.05;96674.09;5021663;28;20277;-78
2024/01/12 02:03:52;;;;;;;27.93;17.33;;;;;;;-4.87;74.14;96663.06;5024397;28;20224;-78
2024/01/12 02:06:18;;;;;;;30.80;18.20;;;;;;;-4.86;73.76;96660.53;5019920;28;20193;-78
2024/01/12 02:08:43;;;;;;;33.10;17.33;;;;;;;-4.87;74.54;96668.16;5018975;28;20210;-78
2024/01/12 02:11:09;;;;;;;29.30;16.27;;;;;;;-4.89;73.63;96670.72;5019337;28;20205;-78
2024/01/12 02:13:34;;;;;;;29.57;16.73;;;;;;;-4.93;74.12;96671.63;5022239;28;20199;-78
2024/01/12 02:16:00;;;;;;;28.10;16.50;;;;;;;-4.87;73.97;96663.06;5003368;28;20184;-78
2024/01/12 02:18:25;;;;;;;33.37;16.93;;;;;;;-4.90;73.79;96661.44;5004505;28;20202;-78
2024/01/12 02:20:57;;;;;;;31.20;16.30;;;;;;;-4.88;74.00;96662.25;5005563;28;20228;-79
2024/01/12 02:23:23;;;;;;;28.00;15.27;;;;;;;-4.92;73.88;96664.88;5004123;28;20227;-79
2024/01/12 02:25:48;;;;;;;31.33;16.37;;;;;;;-4.96;73.67;96664.06;5023466;28;20273;-79
2024/01/12 02:28:14;;;;;;;27.47;15.60;;;;;;;-4.98;74.17;96670.03;5003726;28;20226;-78
2024/01/12 02:30:39;;;;;;;29.37;17.10;;;;;;;-4.99;74.10;96670.91;5007180;28;20660;-79
2024/01/12 02:33:08;;;;;;;29.03;15.30;;;;;;;-5.00;74.07;96667.53;5021184;28;20209;-78
2024/01/12 02:35:33;;;;;;;29.53;16.33;;;;;;;-5.00;74.49;96657.41;5022715;28;20190;-78
2024/01/12 02:37:59;;;;;;;26.53;15.53;;;;;;;-5.00;74.22;96659.94;5007487;28;20182;-79
2024/01/12 02:40:24;;;;;;;30.67;16.23;;;;;;;-4.99;74.11;96658.25;5024206;28;20197;-78
2024/01/12 02:42:50;;;;;;;28.70;15.43;;;;;;;-4.98;74.17;96657.38;5020263;28;20627;-79
2024/01/12 02:45:15;;;;;;;27.03;14.97;;;;;;;-4.96;74.44;96646.34;5020262;28;20907;-79
2024/01/12 02:47:42;;;;;;;25.93;15.03;;;;;;;-4.97;74.14;96657.34;5020717;28;20207;-78
2024/01/12 02:50:07;;;;;;;24.70;15.07;;;;;;;-4.95;74.53;96655.59;4999577;28;20206;-78
2024/01/12 02:52:35;;;;;;;30.40;16.27;;;;;;;-4.95;74.26;96662.38;5002665;28;20183;-78
2024/01/12 02:55:03;;;;;;;23.30;14.60;;;;;;;-4.97;74.85;96661.56;5021429;28;20241;-78
2024/01/12 02:57:28;;;;;;;21.73;14.10;;;;;;;-4.96;73.93;96659.00;5020298;28;20210;-78
2024/01/12 02:59:54;;;;;;;25.23;13.77;;;;;;;-4.95;74.34;96664.91;5020805;28;20223;-77
2024/01/12 03:02:19;;;;;;;25.67;14.90;;;;;;;-4.96;74.07;96653.09;5019732;28;20206;-80
2024/01/12 03:04:44;;;;;;;23.47;13.43;;;;;;;-4.96;74.33;96648.88;5025843;28;20186;-80
2024/01/12 03:07:10;;;;;;;24.73;13.23;;;;;;;-4.90;74.58;96651.31;5020943;28;20205;-79
2024/01/12 03:09:35;;;;;;;26.37;13.23;;;;;;;-4.81;74.03;96646.94;5004879;28;20215;-77
2024/01/12 03:12:00;;;;;;;21.17;12.67;;;;;;;-4.79;73.67;96647.72;5017174;28;20198;-78
2024/01/12 03:14:26;;;;;;;21.37;11.67;;;;;;;-4.78;74.00;96642.63;5023597;28;20183;-78
2024/01/12 03:16:51;;;;;;;23.50;12.37;;;;;;;-4.72;73.81;96645.06;5019153;28;20186;-78
2024/01/12 03:19:16;;;;;;;22.23;12.20;;;;;;;-4.76;73.51;96645.16;5017768;28;20211;-78
2024/01/12 03:21:42;;;;;;;21.87;11.93;;;;;;;-4.76;73.54;96642.63;5021058;28;20198;-78
2024/01/12 03:24:07;;;;;;;21.03;12.90;;;;;;;-4.72;73.85;96641.69;5023168;28;20227;-77
2024/01/12 03:26:37;;;;;;;20.77;12.47;;;;;;;-4.70;73.27;96645.03;5020778;28;20218;-76
2024/01/12 03:29:02;;;;;;;19.20;11.40;;;;;;;-4.65;73.19;96638.19;5018936;28;20223;-78
2024/01/12 03:31:28;;;;;;;22.23;12.10;;;;;;;-4.65;73.15;96633.13;5019184;28;20190;-78
2024/01/12 03:33:53;;;;;;;19.30;11.50;;;;;;;-4.72;73.04;96637.47;5007058;28;20191;-79
2024/01/12 03:36:19;;;;;;;19.93;12.43;;;;;;;-4.76;72.90;96632.50;5024032;28;20199;-78
2024/01/12 03:38:45;;;;;;;25.63;12.87;;;;;;;-4.81;73.14;96627.50;5025564;28;20222;-77
2024/01/12 03:41:10;;;;;;;20.47;11.83;;;;;;;-4.85;73.64;96631.81;5022621;28;20187;-78
2024/01/12 03:43:36;;;;;;;24.93;13.10;;;;;;;-4.87;73.65;96627.59;5019354;28;20214;-78
2024/01/12 03:46:01;;;;;;;21.47;12.77;;;;;;;-4.89;73.37;96630.16;5019744;28;20660;-78
2024/01/12 03:48:27;;;;;;;20.00;12.90;;;;;;;-5.02;73.63;96618.59;5019407;28;20211;-78
2024/01/12 03:50:52;;;;;;;21.30;12.93;;;;;;;-4.99;73.25;96625.31;5020550;28;20201;-78
2024/01/12 03:53:18;;;;;;;21.30;12.43;;;;;;;-5.00;73.68;96624.47;5004406;28;20274;-78
2024/01/12 03:55:43;;;;;;;21.03;11.67;;;;;;;-5.01;73.14;96632.09;5024320;28;20195;-77
2024/01/12 03:58:08;;;;;;;20.30;11.93;;;;;;;-5.01;73.28;96629.56;5023775;28;20235;-78
2024/01/12 04:00:34;;;;;;;20.43;12.47;;;;;;;-5.01;73.46;96625.34;5010120;28;20183;-78
2024/01/12 04:02:59;;;;;;;22.03;12.93;;;;;;;-5.04;73.30;96627.91;5010352;28;20214;-79
2024/01/12 04:05:24;;;;;;;19.00;12.10;;;;;;;-5.07;73.84;96620.38;5028174;28;20201;-77
2024/01/12 04:07:50;;;;;;;20.77;12.23;;;;;;;-5.13;73.54;96631.44;5023539;28;20183;-77
2024/01/12 04:10:15;;;;;;;25.23;13.37;;;;;;;-5.14;73.42;96616.28;5021296;28;20190;-78
2024/01/12 04:12:40;;;;;;;21.77;13.17;;;;;;;-5.14;73.68;96608.66;5024357;28;20270;-78
2024/01/12 04:15:08;;;;;;;26.63;13.97;;;;;;;-5.15;74.26;96617.13;5023712;28;20210;-78
2024/01/12 04:17:34;;;;;;;30.73;13.20;;;;;;;-5.12;73.85;96614.56;5005849;28;20214;-78
2024/01/12 04:19:59;;;;;;;22.87;13.40;;;;;;;-5.15;74.23;96612.06;5021888;28;20700;-80
2024/01/12 04:22:24;;;;;;;20.83;12.17;;;;;;;-5.13;74.14;96621.31;5021256;28;20207;-78
2024/01/12 04:24:50;;;;;;;26.33;13.17;;;;;;;-5.17;74.02;96618.88;5025013;28;20226;-77
2024/01/12 04:27:15;;;;;;;23.37;13.20;;;;;;;-5.14;73.65;96609.50;5004601;28;20296;-78
2024/01/12 04:29:40;;;;;;;22.93;13.37;;;;;;;-5.19;74.44;96623.97;5007610;28;20718;-78
2024/01/12 04:32:06;;;;;;;25.67;13.83;;;;;;;-5.17;74.52;96616.34;5020082;28;20198;-78
2024/01/12 04:34:33;;;;;;;25.90;14.00;;;;;;;-5.16;75.21;96618.00;5023246;28;20213;-78
2024/01/12 04:36:58;;;;;;;23.60;13.97;;;;;;;-5.13;74.59;96623.00;5001412;28;20203;-79
2024/01/12 04:39:24;;;;;;;24.20;13.83;;;;;;;-5.20;74.29;96618.94;5026673;28;20214;-77
2024/01/12 04:41:49;;;;;;;25.30;14.70;;;;;;;-5.20;73.89;96634.13;5023018;28;20198;-77
2024/01/12 04:44:14;;;;;;;26.97;14.87;;;;;;;-5.21;73.86;96632.47;5019940;28;20213;-79
2024/01/12 04:46:41;;;;;;;24.53;14.77;;;;;;;-5.27;73.78;96635.91;5018899;28;20237;-79
2024/01/12 04:49:07;;;;;;;26.37;15.43;;;;;;;-5.25;73.41;96641.78;5002730;28;20211;-79
2024/01/12 04:51:32;;;;;;;29.20;17.43;;;;;;;-5.30;73.84;96652.84;5005786;28;20639;-77
2024/01/12 04:53:57;;;;;;;27.57;17.67;;;;;;;-5.37;74.30;96644.53;5004178;28;20193;-78
2024/01/12 04:56:22;;;;;;;33.13;18.20;;;;;;;-5.37;74.41;96642.00;5007382;28;20190;-78
2024/01/12 04:58:48;;;;;;;29.50;17.63;;;;;;;-5.43;74.20;96645.47;5022740;28;20214;-77
2024/01/12 05:01:13;;;;;;;33.73;17.67;;;;;;;-5.44;74.17;96653.09;5005458;28;20199;-78
2024/01/12 05:03:41;;;;;;;34.60;18.40;;;;;;;-5.47;74.84;96659.03;5022248;28;20206;-78
2024/01/12 05:06:06;;;;;;;30.77;18.10;;;;;;;-5.48;74.41;96656.50;5006681;28;20300;-78
2024/01/12 05:08:34;;;;;;;29.43;17.07;;;;;;;-5.48;74.34;96653.97;5024935;28;20274;-77
2024/01/12 05:10:59;;;;;;;29.27;17.30;;;;;;;-5.51;74.34;96662.47;5004192;28;20195;-78
2024/01/12 05:13:24;;;;;;;31.27;18.00;;;;;;;-5.56;74.15;96669.31;5009967;28;20210;-79
2024/01/12 05:15:50;;;;;;;33.93;18.17;;;;;;;-5.54;75.02;96670.09;5025727;28;20185;-79
2024/01/12 05:18:15;;;;;;;30.27;17.87;;;;;;;-5.56;74.34;96676.91;5023027;28;20241;-79
2024/01/12 05:20:40;;;;;;;35.00;19.50;;;;;;;-5.55;74.58;96667.59;5021543;28;20181;-79
2024/01/12 05:23:06;;;;;;;38.10;19.43;;;;;;;-5.52;75.11;96670.91;5025549;28;20234;-79
2024/01/12 05:25:31;;;;;;;34.40;18.33;;;;;;;-5.59;75.01;96676.94;5025997;28;20183;-80
2024/01/12 05:27:56;;;;;;;37.30;19.07;;;;;;;-5.57;75.02;96675.19;5004979;28;20182;-79
2024/01/12 05:30:22;;;;;;;44.90;22.67;;;;;;;-5.55;75.28;96681.09;5025392;28;20278;-79
2024/01/12 05:32:47;;;;;;;43.90;22.63;;;;;;;-5.51;75.91;96684.41;5005831;28;20230;-78
2024/01/12 05:35:12;;;;;;;41.13;22.77;;;;;;;-5.48;75.69;96681.81;5005552;28;20224;-78
2024/01/12 05:37:38;;;;;;;42.47;22.57;;;;;;;-5.47;75.47;96691.94;5022437;28;20190;-78
2024/01/12 05:40:04;;;;;;;43.67;24.13;;;;;;;-5.44;75.89;96686.00;5024519;28;20227;-78
2024/01/12 05:42:29;;;;;;;42.80;23.63;;;;;;;-5.45;75.83;96669.97;5020545;28;20217;-78
2024/01/12 05:44:55;;;;;;;44.63;24.03;;;;;;;-5.37;75.90;96667.31;5002636;28;20227;-77
2024/01/12 05:47:21;;;;;;;45.37;25.00;;;;;;;-5.41;75.67;96668.22;5001866;28;20218;-77
2024/01/12 05:49:46;;;;;;;47.17;25.60;;;;;;;-5.29;76.03;96662.13;5018203;28;20221;-77
2024/01/12 05:52:12;;;;;;;49.23;25.70;;;;;;;-5.23;75.82;96662.00;5003114;28;20684;-77
2024/01/12 05:54:37;;;;;;;55.87;25.47;;;;;;;-5.16;75.65;96661.06;5022892;28;20194;-80
2024/01/12 05:57:03;;;;;;;46.23;26.07;;;;;;;-5.13;76.12;96661.81;5021774;28;20187;-78
2024/01/12 05:59:28;;;;;;;48.77;25.27;;;;;;;-5.04;75.24;96655.78;5023193;28;20218;-78
2024/01/12 06:01:54;;;;;;;49.43;26.87;;;;;;;-5.05;75.12;96663.41;4999722;28;20262;-77
2024/01/12 06:04:19;;;;;;;41.17;24.90;;;;;;;-4.99;75.40;96653.16;5021097;28;20275;-77
2024/01/12 06:06:45;;;;;;;44.90;24.57;;;;;;;-5.04;74.85;96657.47;5021932;28;20183;-78
2024/01/12 06:09:10;;;;;;;50.30;24.67;;;;;;;-5.05;75.35;96668.47;5006275;28;20207;-78
2024/01/12 06:11:35;;;;;;;45.33;23.47;;;;;;;-4.99;75.28;96655.72;5023685;28;20247;-78
2024/01/12 06:14:02;;;;;;;55.07;25.97;;;;;;;-5.05;74.77;96669.31;5008137;28;20206;-78
2024/01/12 06:16:28;;;;;;;48.40;25.37;;;;;;;-5.04;74.97;96662.53;5024860;28;20206;-78
2024/01/12 06:18:53;;;;;;;44.43;25.20;;;;;;;-5.05;75.33;96673.53;5020204;28;20206;-77
2024/01/12 06:21:18;;;;;;;55.43;25.80;;;;;;;-5.13;74.41;96659.28;5001535;28;20562;-77
2024/01/12 06:23:44;;;;;;;50.20;27.60;;;;;;;-5.09;74.89;96660.09;5002248;28;20610;-78
2024/01/12 06:26:09;;;;;;;50.80;25.63;;;;;;;-5.14;74.75;96657.63;5004722;28;20187;-78
2024/01/12 06:28:34;;;;;;;50.67;28.47;;;;;;;-5.22;74.75;96646.78;5002786;28;20227;-79
2024/01/12 06:31:00;;;;;;;47.10;25.63;;;;;;;-5.26;74.50;96651.94;5007713;28;20189;-76
2024/01/12 06:33:25;;;;;;;54.50;27.47;;;;;;;-5.30;75.55;96647.78;5003432;28;20182;-80
2024/01/12 06:35:51;;;;;;;49.03;26.80;;;;;;;-5.33;75.17;96648.66;5021801;28;20190;-79
2024/01/12 06:38:16;;;;;;;49.37;27.30;;;;;;;-5.37;74.90;96658.88;5020793;28;20573;-79
2024/01/12 06:40:41;;;;;;;47.97;26.33;;;;;;;-5.41;75.53;96655.56;5027893;28;20254;-79
2024/01/12 06:43:07;;;;;;;56.83;27.50;;;;;;;-5.43;75.44;96655.59;5022304;28;20241;-79
2024/01/12 06:45:33;;;;;;;57.33;27.53;;;;;;;-5.47;74.96;96656.50;5007037;28;20189;-79
2024/01/12 06:47:58;;;;;;;51.70;26.50;;;;;;;-5.41;75.83;96643.72;5021931;28;20185;-78
2024/01/12 06:50:23;;;;;;;53.70;27.30;;;;;;;-5.39;75.28;96647.94;5009788;28;20182;-79
2024/01/12 06:52:49;;;;;;;56.00;27.43;;;;;;;-5.40;75.23;96652.16;5022392;28;20189;-79
2024/01/12 06:55:14;;;;;;;52.67;26.33;;;;;;;-5.38;75.39;96649.63;5007190;28;20190;-78
2024/01/12 06:57:39;;;;;;;51.57;26.53;;;;;;;-5.38;75.08;96652.16;5022846;28;20192;-79
2024/01/12 07:00:06;;;;;;;53.73;26.70;;;;;;;-5.39;75.68;96651.28;5025903;28;20284;-78
2024/01/12 07:02:32;;;;;;;50.90;26.77;;;;;;;-5.31;75.57;96656.25;5024497;28;20203;-79
2024/01/12 07:04:57;;;;;;;50.23;26.23;;;;;;;-5.31;75.29;96654.53;5023276;28;20214;-78
2024/01/12 07:07:23;;;;;;;49.30;26.73;;;;;;;-5.30;75.46;96657.91;5026292;28;20249;-78
2024/01/12 07:09:48;;;;;;;51.73;29.30;;;;;;;-5.30;75.40;96642.72;5028246;28;20257;-79
2024/01/12 07:12:13;;;;;;;57.60;28.77;;;;;;;-5.32;75.40;96655.41;5029702;28;20482;-78
2024/01/12 07:14:39;;;;;;;48.60;25.43;;;;;;;-5.27;75.92;96657.88;5016292;28;20258;-78
2024/01/12 07:17:04;;;;;;;50.77;26.07;;;;;;;-5.24;76.04;96653.59;5030019;28;20178;-79
2024/01/12 07:19:29;;;;;;;51.37;25.77;;;;;;;-5.20;75.65;96656.91;5026275;28;20211;-78
2024/01/12 07:21:54;;;;;;;48.37;26.10;;;;;;;-5.22;75.46;96656.09;5028895;28;20275;-78
2024/01/12 07:24:20;;;;;;;44.40;24.83;;;;;;;-5.17;75.87;96654.31;5023139;28;20211;-79
2024/01/12 07:26:45;;;;;;;53.90;26.30;;;;;;;-5.18;75.85;96650.97;5015812;28;20194;-79
2024/01/12 07:29:10;;;;;;;54.63;25.33;;;;;;;-5.15;75.75;96647.53;5027410;28;20207;-78
2024/01/12 07:31:36;;;;;;;51.47;27.53;;;;;;;-5.08;76.02;96651.63;5016026;28;20226;-79
2024/01/12 07:34:04;;;;;;;56.43;25.73;;;;;;;-5.04;75.56;96653.22;5031610;28;20187;-78
2024/01/12 07:36:29;;;;;;;46.60;26.07;;;;;;;-4.99;76.10;96654.00;5013770;28;20217;-78
2024/01/12 07:38:55;;;;;;;51.13;26.27;;;;;;;-4.94;75.49;96657.31;5012753;28;20282;-78
2024/01/12 07:41:20;;;;;;;50.10;26.33;;;;;;;-4.89;75.76;96662.28;5032012;28;20210;-78
2024/01/12 07:43:46;;;;;;;51.03;26.77;;;;;;;-4.91;75.81;96662.31;5043989;28;20207;-77
2024/01/12 07:46:20;;;;;;;46.93;24.80;;;;;;;-4.83;75.81;96664.72;5011175;28;20194;-79
2024/01/12 07:48:49;;;;;;;49.53;27.90;;;;;;;-4.75;75.25;96662.88;5027027;28;20202;-76
2024/01/12 07:51:15;;;;;;;52.23;27.10;;;;;;;-4.67;75.26;96673.72;5025551;28;20202;-80
2024/01/12 07:53:41;;;;;;;49.20;26.97;;;;;;;-4.56;74.78;96670.97;5026471;28;20206;-78
2024/01/12 07:56:06;;;;;;;52.37;29.10;;;;;;;-4.56;74.76;96671.78;5024252;28;20214;-78
2024/01/12 07:58:31;;;;;;;52.53;26.83;;;;;;;-4.58;74.95;96672.69;5011353;28;20253;-78
2024/01/12 08:00:57;;;;;;;49.67;27.10;;;;;;;-4.40;74.73;96671.50;5042897;28;20191;-78
2024/01/12 08:03:23;;;;;;;47.87;26.90;;;;;;;-4.33;74.77;96678.09;5025844;28;20203;-78
2024/01/12 08:05:48;;;;;;;48.00;26.83;;;;;;;-4.30;74.81;96668.75;5032380;28;20189;-77
2024/01/12 08:08:14;;;;;;;51.17;26.80;;;;;;;-4.31;74.58;96672.16;5027762;28;20215;-78
2024/01/12 08:10:43;;;;;;;56.23;29.10;;;;;;;-4.17;74.09;96671.88;5028668;28;20190;-78
2024/01/12 08:13:08;;;;;;;52.20;28.70;;;;;;;-4.09;73.31;96682.69;5006531;28;20234;-78
2024/01/12 08:15:33;;;;;;;49.43;27.13;;;;;;;-4.01;73.25;96683.38;5009700;28;20187;-77
2024/01/12 08:17:59;;;;;;;49.10;26.50;;;;;;;-4.04;73.30;96680.91;5011182;28;20191;-78
2024/01/12 08:20:24;;;;;;;49.73;26.80;;;;;;;-4.01;73.27;96682.53;5025215;28;20198;-78
2024/01/12 08:22:49;;;;;;;49.70;28.30;;;;;;;-4.08;72.93;96691.13;5027239;28;20237;-78
2024/01/12 08:25:15;;;;;;;49.90;27.30;;;;;;;-4.01;73.77;96692.69;5029851;28;20198;-78
2024/01/12 08:27:40;;;;;;;54.23;28.47;;;;;;;-3.99;72.99;96696.84;5027151;28;20199;-78
2024/01/12 08:30:07;;;;;;;52.97;28.53;;;;;;;-3.97;72.59;96691.78;5025830;28;20673;-78
2024/01/12 08:32:32;;;;;;;58.77;31.83;;;;;;;-3.89;73.30;96689.03;5028259;28;20183;-77
2024/01/12 08:34:58;;;;;;;55.60;30.67;;;;;;;-3.86;73.09;96694.91;5027764;28;20187;-78
2024/01/12 08:37:23;;;;;;;55.50;30.70;;;;;;;-3.71;73.38;96704.75;5006304;28;20198;-78
2024/01/12 08:39:49;;;;;;;57.20;30.43;;;;;;;-3.56;73.17;96705.25;5010912;28;20769;-78
2024/01/12 08:42:14;;;;;;;54.27;30.03;;;;;;;-3.67;73.74;96712.28;5017276;28;20185;-79
2024/01/12 08:44:40;;;;;;;52.00;29.43;;;;;;;-3.34;73.19;96715.78;5016914;28;20183;-79
2024/01/12 08:47:05;;;;;;;50.97;27.93;;;;;;;-3.28;72.09;96705.47;5004349;28;20225;-77
2024/01/12 08:49:30;;;;;;;51.13;29.33;;;;;;;-3.17;72.73;96699.28;5023728;28;20199;-78
2024/01/12 08:51:56;;;;;;;47.80;26.77;;;;;;;-3.10;72.48;96716.91;5023784;28;20186;-78
2024/01/12 08:54:21;;;;;;;55.97;32.80;;;;;;;-3.06;72.08;96721.03;5019367;28;20182;-77
2024/01/12 08:56:47;;;;;;;65.10;33.70;;;;;;;-2.83;71.62;96723.00;5019070;28;20284;-77
2024/01/12 08:59:12;;;;;;;72.97;37.87;;;;;;;-2.69;70.93;96723.50;5002726;28;20290;-78
2024/01/12 09:01:38;;;;;;;76.37;40.13;;;;;;;-2.68;70.56;96715.84;5019957;28;20718;-78
2024/01/12 09:04:03;;;;;;;60.23;34.13;;;;;;;-2.47;70.03;96717.00;5018723;28;20207;-78
2024/01/12 09:06:29;;;;;;;59.47;33.20;;;;;;;-2.35;69.79;96726.03;5010656;28;20190;-78
2024/01/12 09:08:55;;;;;;;89.70;45.60;;;;;;;-2.29;69.32;96725.88;5023179;28;20203;-78
2024/01/12 09:11:20;;;;;;;57.77;31.83;;;;;;;-2.44;68.80;96722.00;5007144;28;20186;-78
2024/01/12 09:13:46;;;;;;;52.03;26.53;;;;;;;-3.03;70.06;96733.66;5022746;28;20178;-77
2024/01/12 09:16:11;;;;;;;46.40;25.77;;;;;;;-3.15;70.06;96732.25;5023370;28;20179;-78
2024/01/12 09:18:37;;;;;;;46.00;25.73;;;;;;;-3.30;71.08;96735.97;5018582;28;20229;-77
2024/01/12 09:21:02;;;;;;;48.03;25.33;;;;;;;-3.19;70.45;96726.41;4999570;28;20223;-77
2024/01/12 09:23:28;;;;;;;49.23;26.50;;;;;;;-3.22;70.89;96734.09;5018749;28;20238;-78
2024/01/12 09:25:54;;;;;;;45.87;26.73;;;;;;;-2.95;69.88;96724.16;5004096;28;20568;-78
2024/01/12 09:28:20;;;;;;;48.40;27.20;;;;;;;-3.21;71.14;96738.31;5017686;28;20204;-78
2024/01/12 09:30:46;;;;;;;49.43;27.87;;;;;;;-2.96;70.05;96748.75;5004640;28;20198;-78
2024/01/12 09:33:11;;;;;;;45.00;26.47;;;;;;;-3.22;70.38;96754.44;5021917;28;20599;-79
2024/01/12 09:35:37;;;;;;;45.50;27.43;;;;;;;-3.17;70.65;96747.56;5006588;28;20187;-79
2024/01/12 09:38:02;;;;;;;50.83;27.53;;;;;;;-3.17;71.21;96745.00;5020125;28;20202;-79
2024/01/12 09:40:28;;;;;;;50.73;28.60;;;;;;;-2.99;70.34;96738.66;5029083;28;20210;-79
2024/01/12 09:42:56;;;;;;;52.70;30.00;;;;;;;-3.05;70.56;96741.34;5005898;28;20199;-78
2024/01/12 09:45:22;;;;;;;55.53;31.03;;;;;;;-3.07;70.85;96740.53;5006805;28;20224;-79
2024/01/12 09:47:47;;;;;;;56.70;30.43;;;;;;;-2.67;69.99;96740.38;5000939;28;20214;-79
2024/01/12 09:50:13;;;;;;;51.17;29.27;;;;;;;-2.58;68.86;96740.16;5023812;28;20551;-79
2024/01/12 09:52:38;;;;;;;47.97;27.23;;;;;;;-2.63;69.58;96742.00;5022926;28;20286;-79
2024/01/12 09:55:06;;;;;;;49.03;27.60;;;;;;;-2.50;69.05;96741.69;5021761;28;20317;-78
2024/01/12 09:57:33;;;;;;;47.23;26.57;;;;;;;-2.48;68.83;96729.75;5022153;28;20194;-79
2024/01/12 09:59:59;;;;;;;49.47;27.13;;;;;;;-2.38;68.52;96737.13;5007373;28;20206;-79
2024/01/12 10:02:24;;;;;;;47.93;26.00;;;;;;;-2.35;68.55;96731.09;5006572;28;20190;-79
2024/01/12 10:04:50;;;;;;;49.57;27.07;;;;;;;-2.18;68.74;96733.22;5021722;28;20178;-79
2024/01/12 10:07:15;;;;;;;50.43;26.50;;;;;;;-2.37;69.18;96728.59;5022679;28;20187;-79
2024/01/12 10:09:41;;;;;;;47.20;26.83;;;;;;;-2.11;68.43;96733.00;5020669;28;20207;-79
2024/01/12 10:12:06;;;;;;;48.53;27.50;;;;;;;-1.96;68.58;96728.34;5006756;28;20190;-79
2024/01/12 10:14:31;;;;;;;52.20;27.47;;;;;;;-2.17;68.36;96730.63;5028557;28;20191;-79
2024/01/12 10:16:58;;;;;;;56.30;30.57;;;;;;;-2.26;68.61;96725.78;5008698;28;20190;-79
2024/01/12 10:19:24;;;;;;;57.27;31.57;;;;;;;-2.52;70.48;96725.63;5008046;28;20210;-79
2024/01/12 10:21:50;;;;;;;53.33;30.37;;;;;;;-2.57;70.31;96729.09;5023193;28;20246;-79
2024/01/12 10:24:20;;;;;;;62.73;32.57;;;;;;;-2.22;69.90;96731.59;5026718;28;20237;-78
2024/01/12 10:26:45;;;;;;;55.73;32.50;;;;;;;-2.45;69.79;96725.44;5019165;28;20561;-79
2024/01/12 10:29:13;;;;;;;56.57;31.13;;;;;;;-2.30;69.18;96727.56;5021999;28;20200;-79
2024/01/12 10:31:39;;;;;;;53.90;32.07;;;;;;;-2.11;68.66;96732.16;5024465;28;20187;-79
2024/01/12 10:34:08;;;;;;;58.47;31.30;;;;;;;-2.24;68.25;96725.72;5018641;28;20281;-79
2024/01/12 10:36:35;;;;;;;55.10;30.17;;;;;;;-1.79;67.86;96726.16;5030122;28;20206;-79
2024/01/12 10:39:01;;;;;;;52.20;31.93;;;;;;;-1.66;67.47;96714.75;5020416;28;20309;-79
2024/01/12 10:41:27;;;;;;;57.70;31.10;;;;;;;-1.90;67.77;96718.81;5023829;28;20299;-79
2024/01/12 10:43:53;;;;;;;56.27;32.43;;;;;;;-2.07;68.62;96716.75;5023855;28;20237;-79
2024/01/12 10:46:43;;;;;;;60.10;34.13;;;;;;;-2.31;69.79;96722.50;5009883;28;20258;-79
2024/01/12 10:49:18;;;;;;;58.50;33.63;;;;;;;-1.98;69.71;96723.31;5026574;28;20214;-80
2024/01/12 10:51:58;;;;;;;61.90;35.20;;;;;;;-2.01;69.59;96728.50;5025844;28;20187;-78
2024/01/12 10:54:28;;;;;;;67.43;36.43;;;;;;;-1.95;69.54;96722.38;5021488;28;20218;-78
2024/01/12 10:56:54;;;;;;;62.40;35.57;;;;;;;-1.70;68.89;96715.69;5003617;28;20187;-78
2024/01/12 10:59:22;;;;;;;62.57;35.40;;;;;;;-1.69;68.73;96717.38;5023946;28;20202;-79
2024/01/12 11:01:48;;;;;;;63.50;35.67;;;;;;;-1.60;68.80;96706.91;5007089;28;20184;-79
2024/01/12 11:04:13;;;;;;;65.87;36.07;;;;;;;-1.64;68.11;96715.53;5018917;28;20204;-79
2024/01/12 11:06:40;;;;;;;58.30;36.67;;;;;;;-1.50;68.06;96713.41;5020997;28;20182;-79
2024/01/12 11:09:07;;;;;;;64.90;35.83;;;;;;;-1.90;69.12;96713.75;5006932;28;20306;-79